Questo sito fa uso di cookie per migliorare l’esperienza di navigazione degli utenti e per raccogliere informazioni sull’utilizzo del sito stesso. Proseguendo nella navigazione si accetta l’uso dei cookie; in caso contrario è possibile abbandonare il sito.

[source: ADDS]
METAR
LIPA 241755Z 13003KT 9999 FEW025 SCT060 13/13 Q1018 RMK OVC VIS MIN 9999 WIND THR05 12002KT WIND THR23 10003KT A3007 BLU =
LIPB 241750Z VRB02KT 9999 BKN060 16/06 Q1015 =
LIPC 241755Z 15005KT CAVOK 16/11 Q1016 RMK SCT SCT090 VIS MIN 9999 WIND THR11 15004KT WIND THR29 13007KT BLU =
LIPE 241820Z 06004KT 9999 FEW035 SCT080 17/11 Q1017 =
LIPF 241755Z 18002KT 9999 FEW025 SCT030 17/12 Q1017 RMK BKN VIS MIN 9999 =
LIPI 241355Z 10004KT 9999 SCT025 SCT030 13/11 Q1020 RMK OVC VIS MIN 9999 WIND THR06 10004KT WIND THR24 10004KT BLU =
LIPL 241755Z /////KT 9999 SCT045 18/11 Q1017 RMK BKN SCT100 VIS MIN 9999 WIND THR31 00000KT BLU =
LIPO 241750Z 12004KT 9999 SCT050 17/08 Q1016 =
LIPQ 241820Z 36002KT 9999 SCT030 BKN060 12/09 Q1018 =
LIPR 241815Z 09007KT CAVOK 16/15 Q1017 =
LIPS 241755Z 08006KT 9000 BKN030 14/12 Q1017 RMK BKN VIS MIN 9000 WIND THR26 07005KT WIND THR08 07005KT BLU =
LIPX 241820Z 07004KT 9999 SCT060 16/08 Q1017 =
LIPY 241750Z 15009KT 100V180 CAVOK 16/11 Q1017 =
LIPZ 241820Z 09006KT 060V120 9999 FEW015 SCT060 15/11 Q1017 NOSIG =
LIVC 241755Z 23004KT 3000 BR SCT000 04/M00 Q1019 RMK SCT MON CLD SCT VAL CLD SCT VIS MIN 3000 =
LIVD 241755Z /////KT 9999 OVC025 10/06 Q1017 RMK OVC VIS MIN 9999 =
LIVE 241755Z 16010KT 9999 BKN025 06/05 Q1014 RMK BKN VIS MIN 9999 =
LIVF 241755Z 07004KT 9999 SCT033 15/09 Q1017 RMK SCT MON LIB VAL NIL VIS MIN 9999 =
LIVO 241755Z 26003KT 9999 BKN030 11/06 Q1015 RMK BKN VIS MIN 9999 =
LIVP 241755Z 22020KT 0000 FG VV/// 01/01 Q1016 RMK MON INVIS VAL INVIS VIS MIN 0000 =
LIVR 241655Z 12010KT 0100 FG VV/// 00/M01 Q1018 RMK MON INVIS VIS MIN 0100 =
LIVT 241755Z 00000KT 9999 SCT030 14/09 Q1018 RMK OVC BKN080 QUK 0 QUL 0 VIS MAR 20 KM VIS MIN 9999 =
LIMC 241820Z 35007KT 9999 OVC060 13/09 Q1017 NOSIG =
LIME 241820Z 28003KT 240V300 9999 FEW055 BKN100 15/08 Q1017 NOSIG =
LIMF 241820Z 07003KT 9999 FEW016 BKN030 13/09 Q1017 =
LIMG 241750Z 09004KT 9999 BKN035 15/11 Q1017 =
LIMH 241755Z /////KT 0800 FZFG VV003 M03/M05 Q1018 RMK MON INVIS VAL INVIS VIS MIN 0800 =
LIMJ 241820Z VRB01KT 9999 FEW022 15/11 Q1018 =
LIMK 241755Z 00000KT 6000 BKN015 BKN030 09/09 Q1017 RMK OVC VAL FOSCHIA VIS MIN 6000 =
LIML 241820Z 09002KT 8000 BKN070 17/08 Q1016 NOSIG =
LIMN 241755Z 33005KT 8000 SCT020 13/09 Q1017 RMK OVC BKN070 VIS MIN 8000 BLK BLU =
LIMS 241755Z 09003KT 9999 SCT045 SCT070 17/12 Q1015 RMK BKN VIS MIN 9999 WIND THR30 12002KT BLU =
LIMT 241555Z 20006KT 9999 BKN015 10/03 Q1018 RMK BKN MON LIB VAL NIL VIS MIN 9999 =
LIMU 241755Z 01008KT 9999 BKN015 14/14 Q1018 RMK BKN QUK 2 QUL 1 SE VIS MAR 12 KM VIS MIN 9999 =
LIMV 241755Z /////KT 9999 FEW012 12/08 Q1018 RMK FEW MON LIB VAL NIL VIS MIN 9999 =
LIMY 241755Z VRB03KT 3500 BR BKN012 SCT015 12/10 Q1017 RMK OVC VAL FOSCHIA VIS MIN 3500 =
TAF
TAF LIPA 241700Z 2418/2503 VRB05KT 9999 SCT030 BKN060 PROB30 TEMPO 2418/2424 5000 RA BR =
TAF LIPB 241700Z 2418/2518 16008KT 9999 BKN070 =
TAF LIPC 241700Z 2418/2503 11015KT CAVOK BEGMG 2418/2420 24005KT =
TAF LIPE 241700Z 2418/2518 VRB05KT 9999 BKN070 BECMG 2510/2512 20012KT =
TAF LIPH 241700Z 2418/2518 06008KT 9999 BKN070 =
TAF LIPI 241100Z 2412/2421 VRB05KT 9999 SCT030 BKN060 PROB40 TEMPO 2417/2421 6000 RA =
TAF LIPL 241700Z 2418/2503 06005KT 9999 SCT020 BKN040 TEMPO 2418/2424 5000 RA BR =
TAF LIPO 241700Z 2418/2518 VRB05KT 8000 SCT040 =
TAF LIPQ 241700Z 2418/2518 VRB05KT 9999 SCT050 BECMG 2508/2510 20010KT =
TAF LIPR 241700Z 2418/2503 07015KT CAVOK BECMG 2418/2420 21005KT =
TAF LIPS 241700Z 2418/2503 07005KT 8000 SCT025 BKN060 BECMG 2420/2422 04004KT 6000 =
TAF LIPX 241700Z 2418/2503 10005KT 9999 SCT050 =
TAF LIPY 241700Z 2418/2518 VRB06KT 9999 FEW040 =
TAF LIPZ 241700Z 2418/2524 06010KT 9999 BKN040 BECMG 2420/2422 VRB05KT BECMG 2510/2512 16012KT TEMPO 2511/2518 RA =
TAF LIMC 241700Z 2418/2524 VRB05KT 9999 SCT040 BKN060 TEMPO 2506/2514 RA BECMG 2520/2522 RA =
TAF LIME 241700Z 2418/2518 VRB05KT 9999 BKN080 =
TAF LIMF 241700Z 2418/2518 07005KT 8000 BKN030 =
TAF LIMJ 241700Z 2418/2518 15010KT 9999 SCT040 TEMPO 2423/2507 RA =
TAF LIML 241700Z 2418/2518 VRB05KT 9999 BKN060 =
TAF LIMN 241700Z 2418/2503 05005KT 7000 SCT015 BKN030 =
TAF LIMS 241700Z 2418/2503 VRB05KT 9999 SCT020 SCT040 =
SR / SS: 04:10 / 18:10 UTC (Effemeridi Aeroporto di Padova - LIPU 2017-04-24)

Immagini e previsioni meteo non aeronautiche

 

 

Immagini dal Radar Meteorologico del sito ARPAV. Orario UTC.

 

Immagine dal sito Meteo Sat Online

 

Legenda codici ICAO del nord Italia

 

In ordine di codice   In ordine di località
LIMC
Milano / Malpensa LIMG Albenga
LIME Bergamo / Orio Al Serio LIPA Aviano
LIMF Torino / Caselle LIME Bergamo / Orio Al Serio
LIMG Albenga LIPE Bologna / Borgo Panigale
LIMH Pian Rosa LIPB Bolzano
LIMJ Genova / Sestri LIPL Brescia / Ghedi
LIMK Torino / Bric Della Croce LIPO Brescia / Montichiari
LIML Milano / Linate LIMU Capo Mele
LIMN Novara / Cameri LIPC Cervia
LIMO Monte Bisbino LIVD Dobbiaco
LIMS Piacenza LIPP Dova Area Control Center
LIMT Passo Della Cisa LIPY Falconara
LIMU Capo Mele LIPF Ferrara
LIMV Passo Dei Giovi LIPK Forli
LIMY Monte Malanotte LIVF Frontone
LIPA Aviano LIMJ Genova / Sestri
LIPB Bolzano LIML Milano / Linate
LIPC Cervia
LIMC
Milano / Malpensa
LIPD Udine / Campoformido LIMO Monte Bisbino
LIPE Bologna / Borgo Panigale LIVC Monte Cimone
LIPF Ferrara LIMY Monte Malanotte
LIPH Treviso / S. Angelo LIMN Novara / Cameri
LIPI Udine / Rivolto LIPU Padova
LIPK Forli LIVP Paganella
LIPL Brescia / Ghedi LIMV Passo Dei Giovi
LIPO Brescia / Montichiari LIMT Passo Della Cisa
LIPP Dova Area Control Center LIVR Passo Rolle
LIPQ Ronchi Dei Legionari LIMS Piacenza
LIPR Rimini LIMH Pian Rosa
LIPS Treviso / Istrana LIVM Punta Marina
LIPT Vicenza LIVE Resia Pass
LIPU Padova LIPR Rimini
LIPX Verona / Villafranca LIPQ Ronchi Dei Legionari
LIPY Falconara LIVO Tarvisio
LIPZ Venezia / Tessera LIMK Torino / Bric Della Croce
LIVC Monte Cimone LIMF Torino / Caselle
LIVD Dobbiaco LIPS Treviso / Istrana
LIVE Resia Pass LIPH Treviso / S. Angelo
LIVF Frontone LIVT
Trieste
LIVM Punta Marina LIPD Udine / Campoformido
LIVO Tarvisio LIPI Udine / Rivolto
LIVP Paganella LIPZ Venezia / Tessera
LIVR Passo Rolle LIPX Verona / Villafranca
LIVT Trieste LIPT Vicenza

 

 

 

 

 

 

 

 

 

 

 

 

 

 

 

 

 

 

 

 

 

 

 

 

 

 

 

 

 

 

 

 

 

 

 

 

 

 

 

 

 

 

 

 

 

 

 

 

 

 

 

 

 

 

 

 

 

 

 

 

L'Aeroclub di Padova si limita a riportare informazioni fornite da terze parti, e non ha quindi alcuna responsabilità sul contenuto. Per la pianificazione dei propri voli si raccomanda l'utilizzo delle fonti ufficiali.

Copyright 2011. Free joomla templates | © Aeroclub Padova - Scuola di Volo, Ditta di manutenzione, CAMO Via Sorio, 89 - 35141 Padova Tel. 049 8718599 Fax 049 8717699 info@aeroclubpadova.it